• Join FlightAware (Why Join?)
  • Login
  • US Flag 
03:07PM EDT


 

Airport Tracker/Info


-or-


 

Live Flight TrackerFlight Track Log ✈ QXE803 ✈ 21-Nov-2011 ✈ KBLI - KPDX

Flight Track Log - Related Links

Times and Time Zones

All times are in EST time to prevent confusion due to time zone crossing. See the QXE803 flight status page for this flight to view local times or setup timezone preferences in your user account.

Time Position Orientation Groundspeed Altitude Reporting Facility
EST Latitude Longitude Course Direction KTS MPH feet Rate Location/Type
01:41PM 48.7301 -122.5467 13° North  Level FlightAware Approximate
01:42PM 48.7667 -122.5333 213° Southwest 130 150 1,800  Level Vancouver Center
01:43PM 48.7167 -122.5833 180° South 200 230 4,000 2,760 Climbing Vancouver Center
01:44PM 48.6500 -122.5833 180° South 220 253 7,400 2,460 Climbing Vancouver Center
01:45PM 48.6000 -122.5833 215° Southwest 230 265 9,000 1,080 Climbing Vancouver Center
01:46PM 48.5761 -122.6089 326° Northwest 253 291 9,100 120 Climbing Seattle Center
01:46PM 48.5764 -122.6092 194° South 243 280 9,100 -120 Level Seattle Center
01:47PM 48.5069 -122.6356 360° North 256 295 9,000 -120 Descending Seattle Center
01:47PM 48.5081 -122.6356 192° South 255 293 9,000  Level Seattle Center
01:48PM 48.4372 -122.6589 14° North 243 280 9,000 60 Level Seattle Center
01:48PM 48.4439 -122.6564 192° South 244 281 9,100  Climbing Seattle Center
01:49PM 48.3714 -122.6803 12° North 243 280 9,000 -120 Descending Seattle Center
01:49PM 48.3775 -122.6783 193° South 245 282 9,000  Level Seattle Center
01:50PM 48.3100 -122.7022 197° South 241 277 9,000  Level Seattle Center
01:50PM 48.3008 -122.7064 192° South 241 277 9,000 60 Level Seattle Center
01:51PM 48.2372 -122.7272 185° South 237 273 9,100  Climbing Seattle Center
01:52PM 48.1758 -122.7356 183° South 240 276 9,100  Level Seattle Center
01:52PM 48.1719 -122.7358 182° South 236 272 9,100  Level Seattle Center
01:52PM 48.1503 -122.7372 186° South 239 275 9,100 -120 Level Seattle Center
01:53PM 48.1069 -122.7439 187° South 237 273 9,000 -60 Descending Seattle Center
01:54PM 48.0375 -122.7561 17° North 244 281 9,000  Level Seattle Center
01:54PM 48.0400 -122.7550 185° South 242 278 9,000  Level Seattle Center
01:55PM 47.9750 -122.7639 180° South 247 284 9,000  Level Seattle Center
01:55PM 47.9725 -122.7639 185° South 246 283 9,000  Level Seattle Center
01:56PM 47.9042 -122.7731 185° South 242 278 9,000  Level Seattle Center
01:56PM 47.8928 -122.7744 186° South 244 281 9,000  Level Seattle Center
01:57PM 47.8528 -122.7811 184° South 239 275 9,000  Level Seattle Center
01:57PM 47.8286 -122.7839 186° South 239 275 9,000  Level Seattle Center
01:58PM 47.7800 -122.7914 183° South 236 272 9,000  Level Seattle Center
01:58PM 47.7617 -122.7931 185° South 235 270 9,000  Level Seattle Center
01:59PM 47.7175 -122.7989 185° South 231 266 9,000  Level Seattle Center
01:59PM 47.6986 -122.8011 186° South 231 266 9,000  Level Seattle Center
02:00PM 47.6597 -122.8075 185° South 228 262 9,000  Level Seattle Center
02:00PM 47.6308 -122.8114 187° South 228 262 9,000  Level Seattle Center
02:01PM 47.5914 -122.8181 180° South 229 264 9,000  Level Seattle Center
02:01PM 47.5783 -122.8181 186° South 229 264 9,000  Level Seattle Center
02:02PM 47.5289 -122.8258 184° South 230 265 9,000  Level Seattle Center
02:02PM 47.5036 -122.8286 186° South 229 264 9,000  Level Seattle Center
02:03PM 47.4647 -122.8344 184° South 228 262 9,000  Level Seattle Center
02:03PM 47.4411 -122.8369 187° South 229 264 9,000  Level Seattle Center
02:04PM 47.4069 -122.8428 183° South 232 267 9,000  Level Seattle Center
02:04PM 47.3775 -122.8453 188° South 231 266 9,000  Level Seattle Center
02:05PM 47.3406 -122.8525 182° South 235 270 9,000  Level Seattle Center
02:05PM 47.3133 -122.8536 185° South 234 269 9,000  Level Seattle Center
02:06PM 47.2733 -122.8592 185° South 236 272 9,000  Level Seattle Center
02:06PM 47.2486 -122.8625 188° South 235 270 9,000  Level Seattle Center
02:07PM 47.2097 -122.8706 182° South 237 273 9,000  Level Seattle Center
02:07PM 47.1842 -122.8717 185° South 236 272 9,000  Level Seattle Center
02:08PM 47.1511 -122.8758 186° South 235 270 9,000  Level Seattle Center
02:08PM 47.1072 -122.8822 185° South 235 270 9,000  Level Seattle Center
02:09PM 47.0697 -122.8869 185° South 235 270 9,000  Level Seattle Center
02:09PM 47.0414 -122.8908 187° South 235 270 9,000  Level Seattle Center
02:10PM 47.0100 -122.8964 185° South 238 274 9,000  Level Seattle Center
02:10PM 46.9772 -122.9008 171° South 238 274 9,000 -120 Level Seattle Center
02:11PM 46.9122 -122.8850 170° South 244 281 8,900 -60 Descending Seattle Center
02:12PM 46.8461 -122.8675 170° South 245 282 8,900  Level Seattle Center
02:13PM 46.7814 -122.8506 170° South 242 278 8,900  Level Seattle Center
02:14PM 46.7161 -122.8344 171° South 241 277 8,900  Level Seattle Center
02:15PM 46.6425 -122.8169 169° South 235 270 9,000  Climbing Seattle Center
02:16PM 46.5747 -122.7975 171° South 240 276 8,900 -60 Descending Seattle Center
02:17PM 46.5083 -122.7819 172° South 243 280 8,900  Level Seattle Center
02:18PM 46.4394 -122.7672 170° South 240 276 9,000  Climbing Seattle Center
02:20PM 46.3739 -122.7503 170° South 239 275 9,000  Level Seattle Center
02:21PM 46.3064 -122.7331 170° South 243 280 9,000  Level Seattle Center
02:22PM 46.2453 -122.7169 172° South 246 283 9,000 -180 Level Seattle Center
02:22PM 46.2103 -122.7097 167° South 246 283 8,800 -720 Descending Seattle Center
02:23PM 46.1719 -122.6972 174° South 245 282 8,300 -900 Descending Seattle Center
02:23PM 46.1517 -122.6942 168° South 241 277 8,000 -1,020 Descending Seattle Center
02:24PM 46.1069 -122.6808 174° South 239 275 7,300 -1,020 Descending Seattle Center
02:24PM 46.0883 -122.6781 172° South 230 265 7,000 -300 Descending Seattle Center
02:25PM 46.0494 -122.6697 204° Southwest 212 244 7,000  Level Seattle Center
02:25PM 46.0336 -122.6797 197° South 205 236 7,000 -240 Level Seattle Center
02:26PM 45.9992 -122.6947 202° Southwest 191 220 6,800 -600 Descending Seattle Center
02:26PM 45.9783 -122.7069 198° South 197 227 6,400 -840 Descending Seattle Center
02:27PM 45.9475 -122.7217 192° South 196 226 6,000 -480 Descending Seattle Center
02:27PM 45.9325 -122.7264 197° South 201 231 6,000 -900 Level Seattle Center
02:28PM 45.8728 -122.7525 198° South 210 242 5,000 -900 Descending Seattle Center
02:29PM 45.8361 -122.7692 195° South 208 239 4,300 -1,020 Descending Seattle Center
02:29PM 45.8189 -122.7758 196° South 202 232 4,000 -1,200 Descending Seattle Center
02:30PM 45.7714 -122.7953 185° South 203 234 3,100 -1,020 Descending Seattle Center
02:30PM 45.7642 -122.7961 198° South 202 232 3,000 -540 Descending Seattle Center
02:31PM 45.7169 -122.8181 188° South 205 236 2,600 -420 Descending Seattle Center
02:31PM 45.7103 -122.8194 171° South 206 237 2,600 -120 Level Seattle Center
02:32PM 45.6722 -122.8108 140° Southeast 195 224 2,500 -120 Descending Seattle Center
02:32PM 45.6642 -122.8011 118° Southeast 175 201 2,500 -420 Level Seattle Center
02:33PM 45.6461 -122.7519 145° Southeast 190 219 2,100 -480 Descending Seattle Center
02:33PM 45.6428 -122.7486 118° Southeast 177 204 2,100 -840 Level Seattle Center
02:34PM 45.6242 -122.6983 116° Southeast 157 181 1,300 -840 Descending Seattle Center
02:34PM 45.6233 -122.6958 118° Southeast 180 207 1,300 -600 Level Seattle Center
02:35PM 45.6106 -122.6608 113° Southeast 109 125 700 -540 Descending Seattle Center
02:35PM 45.6081 -122.6522 113° Southeast 154 177 800 1,500 Climbing Seattle Center